Flight Track Log - Related Links

Times and Time Zones

All times are in EDT time to prevent confusion due to time zone crossing. See the N59CW flight status page for this flight to view local times or setup timezone preferences in your user account.

Time Position Orientation Groundspeed Altitude Reporting Facility
EDT Latitude Longitude Course Direction KTS MPH feet Rate Location/Type
Sun 10:35:31 AM 27.9000 -82.6833 117° Southeast 90 104 500  Level Tampa TRACON
Sun 10:36:14 AM 27.8833 -82.7000 221° Southwest 87 100 1,200 816 Climbing Tampa TRACON
Sun 10:37:14 AM 27.8667 -82.7167 221° Southwest 81 93 1,900 636 Climbing Tampa TRACON
Sun 10:38:26 AM 27.8500 -82.7167 180° South 72 83 2,600 650 Climbing Tampa TRACON
Sun 10:39:14 AM 27.8333 -82.7333 221° Southwest 73 84 3,200 650 Climbing Tampa TRACON
Sun 10:40:26 AM 27.8000 -82.7333 180° South 82 94 3,900 619 Climbing Tampa TRACON
Sun 10:41:00 AM 27.7908 -82.4287 117° Southeast  Level Estimated
Sun 10:41:20 AM 27.7833 -82.7333 180° South 84 97 4,500  Level Tampa TRACON
Sun 10:42:20 AM 27.7667 -82.7333 180° South 89 102 5,000 619 Climbing Tampa TRACON
Sun 10:43:26 AM 27.7333 -82.7333 180° South 90 104 5,800 667 Climbing Tampa TRACON
Sun 10:44:26 AM 27.7167 -82.7333 180° South 92 106 6,400 626 Climbing Tampa TRACON
Sun 10:45:21 AM 27.6833 -82.7333 180° South 95 109 7,000 385 Climbing Tampa TRACON
Sun 10:46:15 AM 27.6500 -82.7333 180° South 110 127 7,100 53 Climbing Tampa TRACON
Sun 10:47:15 AM 27.6333 -82.7167 138° Southeast 129 148 7,100  Level Tampa TRACON
Sun 10:48:15 AM 27.6000 -82.7000 156° South 122 140 7,100  Level Tampa TRACON
Sun 10:49:15 AM 27.5667 -82.6833 156° South 119 137 7,100  Level Tampa TRACON
Sun 10:50:27 AM 27.5333 -82.6667 156° South 118 136 7,100  Level Tampa TRACON
Sun 10:51:27 AM 27.5000 -82.6500 156° South 121 139 7,100  Level Tampa TRACON
Sun 10:52:27 AM 27.4667 -82.6500 180° South 126 145 7,100 50 Level Tampa TRACON
Sun 10:53:28 AM 27.4333 -82.6333 156° South 121 139 7,200  Climbing Tampa TRACON
Sun 10:54:21 AM 27.4000 -82.6167 156° South 121 139 7,100 -53 Descending Tampa TRACON
Sun 10:55:22 AM 27.3667 -82.6000 156° South 121 139 7,100  Level Tampa TRACON
Sun 10:56:21 AM 27.3333 -82.6000 180° South 124 143 7,100  Level Tampa TRACON
Sun 10:57:22 AM 27.3000 -82.5833 156° South 125 144 7,100  Level Tampa TRACON
Sun 10:58:22 AM 27.2667 -82.5667 156° South 125 144 7,100  Level Tampa TRACON
Sun 10:59:22 AM 27.2333 -82.5500 156° South 127 146 7,100  Level Tampa TRACON
Sun 11:00:16 AM 27.2000 -82.5500 180° South 124 143 7,100  Level Tampa TRACON
Sun 11:01:16 AM 27.1833 -82.5333 138° Southeast 123 142 7,100  Level Tampa TRACON
Sun 11:02:16 AM 27.1500 -82.5000 138° Southeast 125 144 7,100 -76 Level Tampa TRACON
Sun 11:27:35 AM 26.8631 -81.6183 73° East 131 151 5,100 -76 Descending Miami Center
Sun 11:28:00 AM 26.5296 -81.7182 73° East  Level FlightAware Approximate
Sun 11:28:35 AM 26.8581 -81.5783 98° East 131 151 5,100  Level Miami Center
Sun 11:29:00 AM 26.5400 -81.6790 73° East  Level FlightAware Approximate
Sun 11:29:35 AM 26.8511 -81.5408 102° East 130 150 5,100  Level Miami Center
Sun 11:30:00 AM 26.5505 -81.6399 73° East  Level FlightAware Approximate
Sun 11:30:35 AM 26.8481 -81.4989 95° East 137 158 5,100  Level Miami Center
Sun 11:31:00 AM 26.5609 -81.6006 73° East  Level FlightAware Approximate
Sun 11:31:35 AM 26.8389 -81.4636 106° East 132 152 5,100  Level Miami Center
Sun 11:32:00 AM 26.5713 -81.5614 73° East  Level FlightAware Approximate
Sun 11:32:35 AM 26.8317 -81.4261 102° East 125 144 5,100  Level Miami Center
Sun 11:33:35 AM 26.8289 -81.3842 94° East 125 144 5,100  Level Miami Center
Sun 11:34:35 AM 26.8303 -81.3422 88° East 125 144 5,100  Level Miami Center
Sun 11:35:35 AM 26.8294 -81.3003 91° East 125 144 5,100  Level Miami Center
Sun 11:36:35 AM 26.8283 -81.2608 92° East 125 144 5,100  Level Miami Center
Sun 11:37:35 AM 26.8256 -81.2211 94° East 125 144 5,100  Level Miami Center
Sun 11:38:35 AM 26.8203 -81.1836 99° East 125 144 5,100  Level Miami Center
Sun 11:39:35 AM 26.8153 -81.1417 98° East 125 144 5,100  Level Miami Center
Sun 11:40:35 AM 26.8122 -81.1019 95° East 125 144 5,100  Level Miami Center
Sun 11:41:35 AM 26.8092 -81.0622 95° East 125 144 5,100  Level Miami Center
Sun 11:42:35 AM 26.8106 -81.0228 88° East 130 150 5,100  Level Miami Center
Sun 11:43:35 AM 26.8053 -80.9831 98° East 125 144 5,100  Level Miami Center
Sun 11:44:35 AM 26.8022 -80.9458 95° East 125 144 5,100  Level Miami Center
Sun 11:45:35 AM 26.8011 -80.9061 92° East 125 144 5,100  Level Miami Center
Sun 11:46:35 AM 26.7983 -80.8617 94° East 125 144 5,100  Level Miami Center
Sun 11:47:35 AM 26.7972 -80.8222 92° East 119 137 5,100  Level Miami Center
Sun 11:48:35 AM 26.7942 -80.7847 95° East 124 143 5,100  Level Miami Center
Sun 11:49:35 AM 26.7908 -80.7500 96° East 124 143 5,100 -200 Level Miami Center
Sun 11:50:35 AM 26.7856 -80.7125 99° East 124 143 4,700 -450 Descending Miami Center
Sun 11:51:35 AM 26.7825 -80.6706 95° East 124 143 4,200 -500 Descending Miami Center
Sun 11:52:35 AM 26.7814 -80.6356 92° East 124 143 3,700 -80 Descending Miami Center
Sun 12:12:47 PM 26.5969 -80.0558 251° West 90 104 2,500 -33 Descending Miami Center
Sun 12:13:00 PM 26.6463 -80.1649 254° West  Level FlightAware Approximate
Sun 12:13:47 PM 26.5900 -80.0789 251° West 104 120 3,000  Level Miami Center
Sun 12:14:00 PM 26.6386 -80.1956 254° West  Level FlightAware Approximate
Sun 12:14:47 PM 26.5828 -80.1183 258° West 109 125 3,600  Level Miami Center
Sun 12:15:00 PM 26.6305 -80.2261 251° West  Level FlightAware Approximate
Sun 12:15:47 PM 26.5781 -80.1458 259° West 109 125 4,100  Level Miami Center
Sun 12:16:00 PM 26.6212 -80.2562 251° West  Level FlightAware Approximate
Sun 12:16:47 PM 26.5708 -80.1853 258° West 134 154 4,100  Level Miami Center
Sun 12:17:00 PM 26.6120 -80.2863 251° West  Level FlightAware Approximate
Sun 12:17:47 PM 26.5761 -80.2319 277° West 141 162 4,100  Level Miami Center
Sun 12:18:47 PM 26.5772 -80.2692 272° West 136 157 4,100  Level Miami Center
Sun 12:19:47 PM 26.5803 -80.3178 274° West 136 157 4,100 50 Level Miami Center
Sun 12:20:47 PM 26.5836 -80.3553 276° West 136 157 4,200  Climbing Miami Center
Sun 12:21:47 PM 26.5867 -80.4064 274° West 136 157 4,100 -50 Descending Miami Center
Sun 12:22:47 PM 26.5900 -80.4414 276° West 136 157 4,100  Level Miami Center
Sun 12:23:47 PM 26.5950 -80.4856 277° West 136 157 4,100  Level Miami Center
Sun 12:24:47 PM 26.5964 -80.5206 273° West 132 152 4,100 50 Level Miami Center
Sun 12:25:47 PM 26.6014 -80.5669 277° West 132 152 4,200  Climbing Miami Center
Sun 12:26:47 PM 26.6006 -80.6042 269° West 132 152 4,100 -50 Descending Miami Center
Sun 12:27:47 PM 26.6056 -80.6486 277° West 132 152 4,100  Level Miami Center
Sun 12:28:47 PM 26.6108 -80.6836 280° West 132 152 4,100  Level Miami Center
Sun 12:29:47 PM 26.6119 -80.7278 272° West 132 152 4,100  Level Miami Center
Sun 12:30:47 PM 26.6089 -80.7600 264° West 132 152 4,100  Level Miami Center
Sun 12:31:47 PM 26.5831 -80.7872 223° Southwest 119 137 4,100 50 Level Miami Center
Sun 12:32:47 PM 26.5553 -80.8117 218° Southwest 119 137 4,200  Climbing Miami Center
Sun 12:33:47 PM 26.5297 -80.8342 218° Southwest 119 137 4,100  Descending Miami Center
Sun 12:34:47 PM 26.5058 -80.8611 225° Southwest 124 143 4,200  Climbing Miami Center
Sun 12:35:47 PM 26.4781 -80.8858 219° Southwest 124 143 4,100 -50 Descending Miami Center
Sun 12:36:47 PM 26.4608 -80.9061 227° Southwest 115 132 4,100  Level Miami Center
Sun 12:37:47 PM 26.4308 -80.9350 221° Southwest 120 138 4,100  Level Miami Center
Sun 12:38:47 PM 26.4114 -80.9600 229° Southwest 120 138 4,100  Level Miami Center
Sun 12:39:47 PM 26.3856 -80.9869 223° Southwest 120 138 4,100  Level Miami Center
Sun 12:40:47 PM 26.3639 -81.0069 220° Southwest 120 138 4,100  Level Miami Center
Sun 12:41:47 PM 26.3381 -81.0386 228° Southwest 120 138 4,100 50 Level Miami Center
Sun 12:42:47 PM 26.3183 -81.0681 233° Southwest 130 150 4,200 50 Climbing Miami Center
Sun 12:43:47 PM 26.3008 -81.0975 236° Southwest 130 150 4,200  Level Miami Center
Sun 12:44:47 PM 26.2997 -81.1392 268° West 130 150 4,200  Level Miami Center
Sun 12:45:47 PM 26.2903 -81.1758 254° West 130 150 4,200 -50 Level Miami Center
Sun 12:46:47 PM 26.2828 -81.2128 257° West 130 150 4,100 -50 Descending Miami Center
Sun 12:47:47 PM 26.2753 -81.2517 258° West 130 150 4,100  Level Miami Center
Sun 12:48:47 PM 26.2639 -81.2883 251° West 130 150 4,100 50 Level Miami Center
Sun 12:49:47 PM 26.2503 -81.3250 248° West 130 150 4,200  Climbing Miami Center
Sun 12:50:47 PM 26.2469 -81.3619 264° West 130 150 4,100 -50 Descending Miami Center
Sun 12:51:47 PM 26.2394 -81.4008 258° West 130 150 4,100 -200 Level Miami Center
Sun 12:52:47 PM 26.2383 -81.4403 268° West 125 144 3,700 -500 Descending Miami Center
Sun 12:53:47 PM 26.2433 -81.4775 279° West 125 144 3,100 -250 Descending Miami Center
Sun 12:54:47 PM 26.2483 -81.5169 278° West 130 150 3,200 100 Climbing Miami Center
Sun 12:56:00 PM 26.2240 -81.5467 228° Southwest  Level FlightAware Approximate
Sun 01:03:00 PM 26.1500 -81.7667 257° West  Level FlightAware Approximate
Sun 01:04:00 PM 26.1524 -81.7756 90° East  Level Estimated
Sun 01:05:00 PM 26.1524 -81.7756 107° East  Level Estimated
Sun 01:06:00 PM 26.1524 -81.7756 257° West  Level Estimated
Sun 01:07:00 PM 26.1524 -81.7756 107° East  Level Estimated
Sun 01:08:00 PM 26.1524 -81.7756 107° East  Level Estimated
Sun 01:09:00 PM 26.1524 -81.7756 257° West  Level Estimated
Sun 01:10:00 PM 26.1524 -81.7756 107° East  Level Estimated
Sun 01:11:00 PM 26.1524 -81.7756 107° East  Level Estimated
Sun 01:12:00 PM 26.1524 -81.7756 257° West  Level Estimated
Sun 01:13:00 PM 26.1524 -81.7756 107° East  Level Estimated

Login

Don't have an account? Register now (free) for customized features, flight alerts, and more!